sensor_id;sensor_type;location;lat;lon;timestamp;P1;durP1;ratioP1;P2;durP2;ratioP2
9884;SDS011;4981;50.966;4.842;2022-10-22T00:01:06;7.83;;;2.83;;
9884;SDS011;4981;50.966;4.842;2022-10-22T00:03:33;10.80;;;2.63;;
9884;SDS011;4981;50.966;4.842;2022-10-22T00:06:00;12.23;;;3.40;;
9884;SDS011;4981;50.966;4.842;2022-10-22T00:08:28;11.97;;;2.87;;
9884;SDS011;4981;50.966;4.842;2022-10-22T00:10:56;6.50;;;2.23;;
9884;SDS011;4981;50.966;4.842;2022-10-22T00:13:23;5.03;;;2.00;;
9884;SDS011;4981;50.966;4.842;2022-10-22T00:15:50;8.83;;;2.10;;
9884;SDS011;4981;50.966;4.842;2022-10-22T00:18:18;8.03;;;2.57;;
9884;SDS011;4981;50.966;4.842;2022-10-22T00:20:45;5.77;;;2.00;;
9884;SDS011;4981;50.966;4.842;2022-10-22T00:23:12;8.47;;;1.90;;
9884;SDS011;4981;50.966;4.842;2022-10-22T00:25:39;6.60;;;2.17;;
9884;SDS011;4981;50.966;4.842;2022-10-22T00:28:08;8.20;;;2.13;;
9884;SDS011;4981;50.966;4.842;2022-10-22T00:30:36;6.07;;;2.33;;
9884;SDS011;4981;50.966;4.842;2022-10-22T00:33:03;10.50;;;2.60;;
9884;SDS011;4981;50.966;4.842;2022-10-22T00:35:30;8.90;;;2.27;;
9884;SDS011;4981;50.966;4.842;2022-10-22T00:37:58;7.10;;;2.23;;
9884;SDS011;4981;50.966;4.842;2022-10-22T00:40:25;10.63;;;2.00;;
9884;SDS011;4981;50.966;4.842;2022-10-22T00:42:53;9.17;;;2.67;;
9884;SDS011;4981;50.966;4.842;2022-10-22T00:45:22;11.13;;;2.30;;
9884;SDS011;4981;50.966;4.842;2022-10-22T00:47:54;7.37;;;2.30;;
9884;SDS011;4981;50.966;4.842;2022-10-22T00:50:25;8.37;;;2.63;;
9884;SDS011;4981;50.966;4.842;2022-10-22T00:52:55;7.90;;;2.17;;
9884;SDS011;4981;50.966;4.842;2022-10-22T00:55:23;7.97;;;2.40;;
9884;SDS011;4981;50.966;4.842;2022-10-22T00:57:51;6.07;;;2.30;;
9884;SDS011;4981;50.966;4.842;2022-10-22T01:00:22;9.77;;;2.23;;
9884;SDS011;4981;50.966;4.842;2022-10-22T01:02:50;7.83;;;2.03;;
9884;SDS011;4981;50.966;4.842;2022-10-22T01:05:18;8.10;;;2.07;;
9884;SDS011;4981;50.966;4.842;2022-10-22T01:07:46;6.70;;;1.90;;
9884;SDS011;4981;50.966;4.842;2022-10-22T01:10:17;4.93;;;2.20;;
9884;SDS011;4981;50.966;4.842;2022-10-22T01:13:00;5.97;;;2.20;;
9884;SDS011;4981;50.966;4.842;2022-10-22T01:15:42;8.13;;;2.00;;
9884;SDS011;4981;50.966;4.842;2022-10-22T01:18:17;8.27;;;2.13;;
9884;SDS011;4981;50.966;4.842;2022-10-22T01:20:57;12.03;;;2.50;;
9884;SDS011;4981;50.966;4.842;2022-10-22T01:23:34;7.03;;;2.23;;
9884;SDS011;4981;50.966;4.842;2022-10-22T01:26:30;6.23;;;2.00;;
9884;SDS011;4981;50.966;4.842;2022-10-22T01:29:09;10.37;;;2.23;;
9884;SDS011;4981;50.966;4.842;2022-10-22T01:31:41;10.47;;;2.27;;
9884;SDS011;4981;50.966;4.842;2022-10-22T01:34:12;10.20;;;2.20;;
9884;SDS011;4981;50.966;4.842;2022-10-22T01:36:41;6.90;;;2.17;;
9884;SDS011;4981;50.966;4.842;2022-10-22T01:39:10;7.40;;;2.30;;
9884;SDS011;4981;50.966;4.842;2022-10-22T01:41:41;6.93;;;1.87;;
9884;SDS011;4981;50.966;4.842;2022-10-22T01:44:22;7.00;;;2.13;;
9884;SDS011;4981;50.966;4.842;2022-10-22T01:46:50;8.33;;;2.27;;
9884;SDS011;4981;50.966;4.842;2022-10-22T01:49:25;4.50;;;1.73;;
9884;SDS011;4981;50.966;4.842;2022-10-22T01:52:01;5.90;;;1.73;;
9884;SDS011;4981;50.966;4.842;2022-10-22T01:54:35;4.33;;;1.90;;
9884;SDS011;4981;50.966;4.842;2022-10-22T01:57:09;4.30;;;1.83;;
9884;SDS011;4981;50.966;4.842;2022-10-22T01:59:49;9.93;;;1.87;;
9884;SDS011;4981;50.966;4.842;2022-10-22T02:02:24;5.70;;;1.97;;
9884;SDS011;4981;50.966;4.842;2022-10-22T02:04:59;8.50;;;2.37;;
9884;SDS011;4981;50.966;4.842;2022-10-22T02:07:31;6.13;;;2.17;;
9884;SDS011;4981;50.966;4.842;2022-10-22T02:10:00;10.17;;;2.23;;
9884;SDS011;4981;50.966;4.842;2022-10-22T02:12:29;9.23;;;2.23;;
9884;SDS011;4981;50.966;4.842;2022-10-22T02:14:59;12.17;;;2.77;;
9884;SDS011;4981;50.966;4.842;2022-10-22T02:17:28;7.07;;;1.80;;
9884;SDS011;4981;50.966;4.842;2022-10-22T02:19:59;10.57;;;2.07;;
9884;SDS011;4981;50.966;4.842;2022-10-22T02:22:28;5.07;;;1.87;;
9884;SDS011;4981;50.966;4.842;2022-10-22T02:24:56;7.63;;;2.40;;
9884;SDS011;4981;50.966;4.842;2022-10-22T02:27:23;6.03;;;2.10;;
9884;SDS011;4981;50.966;4.842;2022-10-22T02:29:55;8.53;;;2.20;;
9884;SDS011;4981;50.966;4.842;2022-10-22T02:32:30;7.70;;;1.83;;
9884;SDS011;4981;50.966;4.842;2022-10-22T02:35:00;8.20;;;2.00;;
9884;SDS011;4981;50.966;4.842;2022-10-22T02:37:28;6.67;;;2.33;;
9884;SDS011;4981;50.966;4.842;2022-10-22T02:39:55;7.03;;;2.30;;
9884;SDS011;4981;50.966;4.842;2022-10-22T02:42:23;9.63;;;2.10;;
9884;SDS011;4981;50.966;4.842;2022-10-22T02:44:51;6.27;;;1.90;;
9884;SDS011;4981;50.966;4.842;2022-10-22T02:47:21;7.27;;;2.30;;
9884;SDS011;4981;50.966;4.842;2022-10-22T02:49:48;6.37;;;2.07;;
9884;SDS011;4981;50.966;4.842;2022-10-22T02:52:15;8.13;;;2.23;;
9884;SDS011;4981;50.966;4.842;2022-10-22T02:54:42;9.33;;;2.53;;
9884;SDS011;4981;50.966;4.842;2022-10-22T02:57:09;9.97;;;2.23;;
9884;SDS011;4981;50.966;4.842;2022-10-22T02:59:36;9.73;;;2.20;;
9884;SDS011;4981;50.966;4.842;2022-10-22T03:02:03;14.33;;;2.90;;
9884;SDS011;4981;50.966;4.842;2022-10-22T03:04:31;7.00;;;2.23;;
9884;SDS011;4981;50.966;4.842;2022-10-22T03:06:59;10.13;;;2.40;;
9884;SDS011;4981;50.966;4.842;2022-10-22T03:09:26;10.97;;;2.60;;
9884;SDS011;4981;50.966;4.842;2022-10-22T03:11:53;10.53;;;2.20;;
9884;SDS011;4981;50.966;4.842;2022-10-22T03:14:20;7.60;;;1.77;;
9884;SDS011;4981;50.966;4.842;2022-10-22T03:16:47;8.53;;;2.07;;
9884;SDS011;4981;50.966;4.842;2022-10-22T03:19:14;7.87;;;2.03;;
9884;SDS011;4981;50.966;4.842;2022-10-22T03:21:43;10.50;;;2.43;;
9884;SDS011;4981;50.966;4.842;2022-10-22T03:24:14;9.77;;;2.30;;
9884;SDS011;4981;50.966;4.842;2022-10-22T03:26:44;7.50;;;2.27;;
9884;SDS011;4981;50.966;4.842;2022-10-22T03:29:13;7.67;;;2.10;;
9884;SDS011;4981;50.966;4.842;2022-10-22T03:31:42;8.17;;;2.03;;
9884;SDS011;4981;50.966;4.842;2022-10-22T03:34:09;7.80;;;2.27;;
9884;SDS011;4981;50.966;4.842;2022-10-22T03:36:37;8.30;;;1.80;;
9884;SDS011;4981;50.966;4.842;2022-10-22T03:39:07;9.73;;;2.20;;
9884;SDS011;4981;50.966;4.842;2022-10-22T03:41:37;10.90;;;2.20;;
9884;SDS011;4981;50.966;4.842;2022-10-22T03:44:04;6.83;;;2.10;;
9884;SDS011;4981;50.966;4.842;2022-10-22T03:46:32;10.87;;;2.13;;
9884;SDS011;4981;50.966;4.842;2022-10-22T03:48:59;8.83;;;1.87;;
9884;SDS011;4981;50.966;4.842;2022-10-22T03:51:27;9.00;;;2.10;;
9884;SDS011;4981;50.966;4.842;2022-10-22T03:53:54;9.50;;;1.90;;
9884;SDS011;4981;50.966;4.842;2022-10-22T03:56:22;7.90;;;2.20;;
9884;SDS011;4981;50.966;4.842;2022-10-22T03:58:50;5.43;;;1.80;;
9884;SDS011;4981;50.966;4.842;2022-10-22T04:01:17;5.13;;;1.60;;
9884;SDS011;4981;50.966;4.842;2022-10-22T04:03:44;5.77;;;2.20;;
9884;SDS011;4981;50.966;4.842;2022-10-22T04:06:11;4.67;;;2.07;;
9884;SDS011;4981;50.966;4.842;2022-10-22T04:08:38;8.47;;;2.17;;
9884;SDS011;4981;50.966;4.842;2022-10-22T04:11:06;8.17;;;2.00;;
9884;SDS011;4981;50.966;4.842;2022-10-22T04:13:35;7.10;;;2.27;;
9884;SDS011;4981;50.966;4.842;2022-10-22T04:16:05;9.77;;;2.10;;
9884;SDS011;4981;50.966;4.842;2022-10-22T04:18:33;8.73;;;1.73;;
9884;SDS011;4981;50.966;4.842;2022-10-22T04:21:00;8.93;;;1.90;;
9884;SDS011;4981;50.966;4.842;2022-10-22T04:23:27;8.67;;;1.73;;
9884;SDS011;4981;50.966;4.842;2022-10-22T04:25:56;13.57;;;5.00;;
9884;SDS011;4981;50.966;4.842;2022-10-22T04:28:24;11.30;;;4.10;;
9884;SDS011;4981;50.966;4.842;2022-10-22T04:30:52;13.63;;;5.73;;
9884;SDS011;4981;50.966;4.842;2022-10-22T04:33:19;9.83;;;3.70;;
9884;SDS011;4981;50.966;4.842;2022-10-22T04:35:46;13.80;;;4.33;;
9884;SDS011;4981;50.966;4.842;2022-10-22T04:38:14;10.63;;;3.63;;
9884;SDS011;4981;50.966;4.842;2022-10-22T04:40:41;8.67;;;4.33;;
9884;SDS011;4981;50.966;4.842;2022-10-22T04:43:08;9.17;;;4.63;;
9884;SDS011;4981;50.966;4.842;2022-10-22T04:45:35;7.23;;;2.60;;
9884;SDS011;4981;50.966;4.842;2022-10-22T04:48:05;12.27;;;3.70;;
9884;SDS011;4981;50.966;4.842;2022-10-22T04:50:33;12.40;;;4.07;;
9884;SDS011;4981;50.966;4.842;2022-10-22T04:53:01;10.13;;;2.20;;
9884;SDS011;4981;50.966;4.842;2022-10-22T04:55:27;12.33;;;4.70;;
9884;SDS011;4981;50.966;4.842;2022-10-22T04:57:54;5.80;;;2.70;;
9884;SDS011;4981;50.966;4.842;2022-10-22T05:00:21;9.17;;;2.03;;
9884;SDS011;4981;50.966;4.842;2022-10-22T05:02:49;10.13;;;2.73;;
9884;SDS011;4981;50.966;4.842;2022-10-22T05:05:17;7.60;;;4.40;;
9884;SDS011;4981;50.966;4.842;2022-10-22T05:07:44;7.37;;;3.40;;
9884;SDS011;4981;50.966;4.842;2022-10-22T05:10:11;11.93;;;3.63;;
9884;SDS011;4981;50.966;4.842;2022-10-22T05:12:38;10.03;;;2.77;;
9884;SDS011;4981;50.966;4.842;2022-10-22T05:15:06;5.03;;;1.83;;
9884;SDS011;4981;50.966;4.842;2022-10-22T05:17:34;8.50;;;2.40;;
9884;SDS011;4981;50.966;4.842;2022-10-22T05:20:02;8.73;;;2.30;;
9884;SDS011;4981;50.966;4.842;2022-10-22T05:22:31;10.13;;;2.30;;
9884;SDS011;4981;50.966;4.842;2022-10-22T05:24:59;9.97;;;2.60;;
9884;SDS011;4981;50.966;4.842;2022-10-22T05:27:27;8.97;;;3.63;;
9884;SDS011;4981;50.966;4.842;2022-10-22T05:29:54;14.80;;;3.00;;
9884;SDS011;4981;50.966;4.842;2022-10-22T05:32:21;12.93;;;4.70;;
9884;SDS011;4981;50.966;4.842;2022-10-22T05:34:48;11.13;;;4.20;;
9884;SDS011;4981;50.966;4.842;2022-10-22T05:37:15;7.17;;;4.20;;
9884;SDS011;4981;50.966;4.842;2022-10-22T05:39:43;6.63;;;2.97;;
9884;SDS011;4981;50.966;4.842;2022-10-22T05:42:10;8.37;;;3.13;;
9884;SDS011;4981;50.966;4.842;2022-10-22T05:44:37;13.17;;;3.87;;
9884;SDS011;4981;50.966;4.842;2022-10-22T05:47:05;11.93;;;4.20;;
9884;SDS011;4981;50.966;4.842;2022-10-22T05:49:32;7.30;;;2.60;;
9884;SDS011;4981;50.966;4.842;2022-10-22T05:51:59;7.57;;;2.57;;
9884;SDS011;4981;50.966;4.842;2022-10-22T05:54:26;9.30;;;2.10;;
9884;SDS011;4981;50.966;4.842;2022-10-22T05:56:54;12.87;;;2.63;;
9884;SDS011;4981;50.966;4.842;2022-10-22T05:59:21;5.20;;;1.73;;
9884;SDS011;4981;50.966;4.842;2022-10-22T06:01:48;4.67;;;1.60;;
9884;SDS011;4981;50.966;4.842;2022-10-22T06:04:16;10.00;;;2.23;;
9884;SDS011;4981;50.966;4.842;2022-10-22T06:06:43;6.53;;;2.00;;
9884;SDS011;4981;50.966;4.842;2022-10-22T06:09:12;7.33;;;1.93;;
9884;SDS011;4981;50.966;4.842;2022-10-22T06:11:42;6.00;;;1.87;;
9884;SDS011;4981;50.966;4.842;2022-10-22T06:14:11;9.40;;;2.07;;
9884;SDS011;4981;50.966;4.842;2022-10-22T06:16:38;9.13;;;2.27;;
9884;SDS011;4981;50.966;4.842;2022-10-22T06:19:06;6.20;;;2.00;;
9884;SDS011;4981;50.966;4.842;2022-10-22T06:21:35;8.63;;;2.00;;
9884;SDS011;4981;50.966;4.842;2022-10-22T06:24:02;10.80;;;2.17;;
9884;SDS011;4981;50.966;4.842;2022-10-22T06:26:30;8.40;;;2.37;;
9884;SDS011;4981;50.966;4.842;2022-10-22T06:28:58;8.70;;;2.17;;
9884;SDS011;4981;50.966;4.842;2022-10-22T06:31:26;4.67;;;2.00;;
9884;SDS011;4981;50.966;4.842;2022-10-22T06:34:00;5.63;;;1.60;;
9884;SDS011;4981;50.966;4.842;2022-10-22T06:36:27;5.57;;;1.83;;
9884;SDS011;4981;50.966;4.842;2022-10-22T06:38:54;8.40;;;2.30;;
9884;SDS011;4981;50.966;4.842;2022-10-22T06:41:22;7.00;;;1.77;;
9884;SDS011;4981;50.966;4.842;2022-10-22T06:43:50;8.50;;;1.73;;
9884;SDS011;4981;50.966;4.842;2022-10-22T06:46:19;5.97;;;1.63;;
9884;SDS011;4981;50.966;4.842;2022-10-22T06:48:49;10.80;;;1.83;;
9884;SDS011;4981;50.966;4.842;2022-10-22T06:51:17;5.90;;;1.57;;
9884;SDS011;4981;50.966;4.842;2022-10-22T06:53:45;9.27;;;1.67;;
9884;SDS011;4981;50.966;4.842;2022-10-22T06:56:14;9.13;;;1.73;;
9884;SDS011;4981;50.966;4.842;2022-10-22T06:58:42;11.77;;;1.83;;
9884;SDS011;4981;50.966;4.842;2022-10-22T07:01:12;9.23;;;2.10;;
9884;SDS011;4981;50.966;4.842;2022-10-22T07:03:40;5.70;;;1.50;;
9884;SDS011;4981;50.966;4.842;2022-10-22T07:06:10;7.97;;;1.77;;
9884;SDS011;4981;50.966;4.842;2022-10-22T07:08:38;9.27;;;2.00;;
9884;SDS011;4981;50.966;4.842;2022-10-22T07:11:06;9.17;;;2.17;;
9884;SDS011;4981;50.966;4.842;2022-10-22T07:13:35;8.97;;;2.27;;
9884;SDS011;4981;50.966;4.842;2022-10-22T07:16:03;7.07;;;1.40;;
9884;SDS011;4981;50.966;4.842;2022-10-22T07:18:31;6.57;;;1.40;;
9884;SDS011;4981;50.966;4.842;2022-10-22T07:20:59;10.57;;;1.90;;
9884;SDS011;4981;50.966;4.842;2022-10-22T07:23:28;8.33;;;2.00;;
9884;SDS011;4981;50.966;4.842;2022-10-22T07:25:55;5.93;;;1.30;;
9884;SDS011;4981;50.966;4.842;2022-10-22T07:28:22;6.57;;;1.80;;
9884;SDS011;4981;50.966;4.842;2022-10-22T07:30:49;6.63;;;1.63;;
9884;SDS011;4981;50.966;4.842;2022-10-22T07:33:16;5.57;;;1.43;;
9884;SDS011;4981;50.966;4.842;2022-10-22T07:35:43;6.17;;;1.60;;
9884;SDS011;4981;50.966;4.842;2022-10-22T07:38:10;9.40;;;1.47;;
9884;SDS011;4981;50.966;4.842;2022-10-22T07:40:39;8.03;;;1.33;;
9884;SDS011;4981;50.966;4.842;2022-10-22T07:43:05;9.37;;;1.60;;
9884;SDS011;4981;50.966;4.842;2022-10-22T07:45:32;7.10;;;1.90;;
9884;SDS011;4981;50.966;4.842;2022-10-22T07:47:59;5.27;;;1.37;;
9884;SDS011;4981;50.966;4.842;2022-10-22T07:50:26;5.30;;;1.40;;
9884;SDS011;4981;50.966;4.842;2022-10-22T07:52:53;7.90;;;1.60;;
9884;SDS011;4981;50.966;4.842;2022-10-22T07:55:20;6.87;;;1.40;;
9884;SDS011;4981;50.966;4.842;2022-10-22T07:57:50;7.33;;;1.80;;
9884;SDS011;4981;50.966;4.842;2022-10-22T08:00:17;6.37;;;1.60;;
9884;SDS011;4981;50.966;4.842;2022-10-22T08:02:45;12.27;;;3.03;;
9884;SDS011;4981;50.966;4.842;2022-10-22T08:05:12;7.00;;;1.60;;
9884;SDS011;4981;50.966;4.842;2022-10-22T08:07:40;6.40;;;1.37;;
9884;SDS011;4981;50.966;4.842;2022-10-22T08:10:08;10.50;;;1.73;;
9884;SDS011;4981;50.966;4.842;2022-10-22T08:12:35;7.20;;;1.53;;
9884;SDS011;4981;50.966;4.842;2022-10-22T08:15:05;6.03;;;1.30;;
9884;SDS011;4981;50.966;4.842;2022-10-22T08:17:33;6.53;;;1.77;;
9884;SDS011;4981;50.966;4.842;2022-10-22T08:20:00;6.93;;;1.60;;
9884;SDS011;4981;50.966;4.842;2022-10-22T08:22:27;8.57;;;1.47;;
9884;SDS011;4981;50.966;4.842;2022-10-22T08:24:54;5.43;;;1.33;;
9884;SDS011;4981;50.966;4.842;2022-10-22T08:27:22;6.63;;;0.97;;
9884;SDS011;4981;50.966;4.842;2022-10-22T08:29:49;6.97;;;1.50;;
9884;SDS011;4981;50.966;4.842;2022-10-22T08:32:17;6.03;;;1.60;;
9884;SDS011;4981;50.966;4.842;2022-10-22T08:34:44;9.03;;;1.83;;
9884;SDS011;4981;50.966;4.842;2022-10-22T08:37:12;3.97;;;1.33;;
9884;SDS011;4981;50.966;4.842;2022-10-22T08:39:38;8.80;;;1.70;;
9884;SDS011;4981;50.966;4.842;2022-10-22T08:42:08;7.27;;;1.43;;
9884;SDS011;4981;50.966;4.842;2022-10-22T08:44:58;6.77;;;1.40;;
9884;SDS011;4981;50.966;4.842;2022-10-22T08:47:40;7.60;;;1.27;;
9884;SDS011;4981;50.966;4.842;2022-10-22T08:50:23;4.20;;;1.23;;
9884;SDS011;4981;50.966;4.842;2022-10-22T08:52:59;6.30;;;1.40;;
9884;SDS011;4981;50.966;4.842;2022-10-22T08:55:29;8.00;;;1.53;;
9884;SDS011;4981;50.966;4.842;2022-10-22T08:57:58;5.37;;;1.50;;
9884;SDS011;4981;50.966;4.842;2022-10-22T09:00:30;7.27;;;1.40;;
9884;SDS011;4981;50.966;4.842;2022-10-22T09:03:09;4.83;;;1.30;;
9884;SDS011;4981;50.966;4.842;2022-10-22T09:05:53;7.07;;;1.63;;
9884;SDS011;4981;50.966;4.842;2022-10-22T09:08:27;9.17;;;1.87;;
9884;SDS011;4981;50.966;4.842;2022-10-22T09:10:54;8.77;;;1.60;;
9884;SDS011;4981;50.966;4.842;2022-10-22T09:13:27;4.53;;;1.50;;
9884;SDS011;4981;50.966;4.842;2022-10-22T09:15:57;8.20;;;1.80;;
9884;SDS011;4981;50.966;4.842;2022-10-22T09:18:32;7.27;;;1.50;;
9884;SDS011;4981;50.966;4.842;2022-10-22T09:21:05;9.63;;;1.70;;
9884;SDS011;4981;50.966;4.842;2022-10-22T09:23:46;8.40;;;1.63;;
9884;SDS011;4981;50.966;4.842;2022-10-22T09:26:21;8.40;;;1.87;;
9884;SDS011;4981;50.966;4.842;2022-10-22T09:28:48;7.20;;;1.70;;
9884;SDS011;4981;50.966;4.842;2022-10-22T09:31:16;6.20;;;1.63;;
9884;SDS011;4981;50.966;4.842;2022-10-22T09:33:46;11.20;;;1.50;;
9884;SDS011;4981;50.966;4.842;2022-10-22T09:36:17;6.03;;;1.60;;
9884;SDS011;4981;50.966;4.842;2022-10-22T09:38:48;7.43;;;1.83;;
9884;SDS011;4981;50.966;4.842;2022-10-22T09:41:19;5.97;;;1.30;;
9884;SDS011;4981;50.966;4.842;2022-10-22T09:43:48;7.30;;;1.60;;
9884;SDS011;4981;50.966;4.842;2022-10-22T09:46:17;8.23;;;1.27;;
9884;SDS011;4981;50.966;4.842;2022-10-22T09:48:48;9.97;;;1.80;;
9884;SDS011;4981;50.966;4.842;2022-10-22T09:51:19;9.87;;;2.33;;
9884;SDS011;4981;50.966;4.842;2022-10-22T09:53:54;7.90;;;1.53;;
9884;SDS011;4981;50.966;4.842;2022-10-22T09:56:24;4.87;;;1.57;;
9884;SDS011;4981;50.966;4.842;2022-10-22T09:58:54;4.80;;;1.50;;
9884;SDS011;4981;50.966;4.842;2022-10-22T10:01:23;10.57;;;1.63;;
9884;SDS011;4981;50.966;4.842;2022-10-22T10:03:52;9.20;;;2.07;;
9884;SDS011;4981;50.966;4.842;2022-10-22T10:06:20;7.20;;;1.67;;
9884;SDS011;4981;50.966;4.842;2022-10-22T10:08:48;7.10;;;1.80;;
9884;SDS011;4981;50.966;4.842;2022-10-22T10:11:17;8.90;;;2.00;;
9884;SDS011;4981;50.966;4.842;2022-10-22T10:13:52;7.17;;;1.93;;
9884;SDS011;4981;50.966;4.842;2022-10-22T10:16:26;9.97;;;1.60;;
9884;SDS011;4981;50.966;4.842;2022-10-22T10:19:10;6.67;;;1.90;;
9884;SDS011;4981;50.966;4.842;2022-10-22T10:21:59;9.77;;;1.60;;
9884;SDS011;4981;50.966;4.842;2022-10-22T10:24:35;9.63;;;1.93;;
9884;SDS011;4981;50.966;4.842;2022-10-22T10:27:17;10.27;;;2.30;;
9884;SDS011;4981;50.966;4.842;2022-10-22T10:29:49;12.37;;;2.20;;
9884;SDS011;4981;50.966;4.842;2022-10-22T10:32:27;8.30;;;1.70;;
9884;SDS011;4981;50.966;4.842;2022-10-22T10:35:11;6.83;;;1.80;;
9884;SDS011;4981;50.966;4.842;2022-10-22T10:37:45;8.60;;;1.50;;
9884;SDS011;4981;50.966;4.842;2022-10-22T10:40:19;10.87;;;2.00;;
9884;SDS011;4981;50.966;4.842;2022-10-22T10:42:59;8.10;;;1.87;;
9884;SDS011;4981;50.966;4.842;2022-10-22T10:45:34;11.57;;;1.83;;
9884;SDS011;4981;50.966;4.842;2022-10-22T10:48:11;6.10;;;1.70;;
9884;SDS011;4981;50.966;4.842;2022-10-22T10:50:58;6.87;;;1.90;;
9884;SDS011;4981;50.966;4.842;2022-10-22T10:53:38;12.20;;;2.33;;
9884;SDS011;4981;50.966;4.842;2022-10-22T10:56:22;9.83;;;1.70;;
9884;SDS011;4981;50.966;4.842;2022-10-22T10:59:00;10.47;;;1.80;;
9884;SDS011;4981;50.966;4.842;2022-10-22T11:01:36;6.67;;;1.90;;
9884;SDS011;4981;50.966;4.842;2022-10-22T11:04:28;6.43;;;1.53;;
9884;SDS011;4981;50.966;4.842;2022-10-22T11:07:14;8.73;;;1.50;;
9884;SDS011;4981;50.966;4.842;2022-10-22T11:09:44;7.00;;;1.87;;
9884;SDS011;4981;50.966;4.842;2022-10-22T11:12:16;9.47;;;1.90;;
9884;SDS011;4981;50.966;4.842;2022-10-22T11:14:49;9.60;;;1.70;;
9884;SDS011;4981;50.966;4.842;2022-10-22T11:17:23;10.17;;;2.07;;
9884;SDS011;4981;50.966;4.842;2022-10-22T11:19:55;8.77;;;1.67;;
9884;SDS011;4981;50.966;4.842;2022-10-22T11:22:30;7.50;;;2.03;;
9884;SDS011;4981;50.966;4.842;2022-10-22T11:25:03;4.67;;;1.20;;
9884;SDS011;4981;50.966;4.842;2022-10-22T11:27:40;5.87;;;1.40;;
9884;SDS011;4981;50.966;4.842;2022-10-22T11:30:11;7.00;;;1.40;;
9884;SDS011;4981;50.966;4.842;2022-10-22T11:32:40;5.73;;;1.60;;
9884;SDS011;4981;50.966;4.842;2022-10-22T11:35:11;7.47;;;1.60;;
9884;SDS011;4981;50.966;4.842;2022-10-22T11:37:43;7.97;;;1.97;;
9884;SDS011;4981;50.966;4.842;2022-10-22T11:40:13;6.83;;;2.13;;
9884;SDS011;4981;50.966;4.842;2022-10-22T11:42:45;10.33;;;2.00;;
9884;SDS011;4981;50.966;4.842;2022-10-22T11:45:26;6.47;;;1.60;;
9884;SDS011;4981;50.966;4.842;2022-10-22T11:47:56;8.33;;;1.77;;
9884;SDS011;4981;50.966;4.842;2022-10-22T11:50:25;5.60;;;1.80;;
9884;SDS011;4981;50.966;4.842;2022-10-22T11:53:16;6.73;;;1.80;;
9884;SDS011;4981;50.966;4.842;2022-10-22T11:55:45;5.60;;;1.50;;
9884;SDS011;4981;50.966;4.842;2022-10-22T11:58:24;6.47;;;2.20;;
9884;SDS011;4981;50.966;4.842;2022-10-22T12:00:57;6.43;;;1.80;;
9884;SDS011;4981;50.966;4.842;2022-10-22T12:03:49;8.43;;;2.00;;
9884;SDS011;4981;50.966;4.842;2022-10-22T12:06:19;5.07;;;1.70;;
9884;SDS011;4981;50.966;4.842;2022-10-22T12:08:55;7.13;;;2.00;;
9884;SDS011;4981;50.966;4.842;2022-10-22T12:11:25;9.23;;;1.50;;
9884;SDS011;4981;50.966;4.842;2022-10-22T12:13:56;6.33;;;1.47;;
9884;SDS011;4981;50.966;4.842;2022-10-22T12:16:39;5.97;;;1.57;;
9884;SDS011;4981;50.966;4.842;2022-10-22T12:19:14;3.50;;;1.20;;
9884;SDS011;4981;50.966;4.842;2022-10-22T12:21:45;3.90;;;1.50;;
9884;SDS011;4981;50.966;4.842;2022-10-22T12:24:16;5.27;;;1.30;;
9884;SDS011;4981;50.966;4.842;2022-10-22T12:26:45;6.03;;;1.50;;
9884;SDS011;4981;50.966;4.842;2022-10-22T12:29:15;9.40;;;1.50;;
9884;SDS011;4981;50.966;4.842;2022-10-22T12:31:43;5.27;;;1.53;;
9884;SDS011;4981;50.966;4.842;2022-10-22T12:34:12;4.80;;;1.40;;
9884;SDS011;4981;50.966;4.842;2022-10-22T12:36:40;4.07;;;1.20;;
9884;SDS011;4981;50.966;4.842;2022-10-22T12:39:09;8.60;;;1.47;;
9884;SDS011;4981;50.966;4.842;2022-10-22T12:41:40;6.60;;;1.40;;
9884;SDS011;4981;50.966;4.842;2022-10-22T12:44:10;4.10;;;1.07;;
9884;SDS011;4981;50.966;4.842;2022-10-22T12:46:40;5.10;;;1.30;;
9884;SDS011;4981;50.966;4.842;2022-10-22T12:49:10;6.43;;;1.70;;
9884;SDS011;4981;50.966;4.842;2022-10-22T12:51:41;6.73;;;1.70;;
9884;SDS011;4981;50.966;4.842;2022-10-22T12:54:11;5.20;;;1.30;;
9884;SDS011;4981;50.966;4.842;2022-10-22T12:56:44;6.87;;;1.43;;
9884;SDS011;4981;50.966;4.842;2022-10-22T12:59:15;5.63;;;1.50;;
9884;SDS011;4981;50.966;4.842;2022-10-22T13:01:47;4.50;;;1.00;;
9884;SDS011;4981;50.966;4.842;2022-10-22T13:04:18;9.37;;;1.77;;
9884;SDS011;4981;50.966;4.842;2022-10-22T13:07:03;3.25;;;1.10;;
9884;SDS011;4981;50.966;4.842;2022-10-22T13:09:40;3.90;;;1.10;;
9884;SDS011;4981;50.966;4.842;2022-10-22T13:12:10;6.07;;;1.17;;
9884;SDS011;4981;50.966;4.842;2022-10-22T13:14:41;5.90;;;1.10;;
9884;SDS011;4981;50.966;4.842;2022-10-22T13:17:09;4.63;;;1.20;;
9884;SDS011;4981;50.966;4.842;2022-10-22T13:19:40;4.82;;;1.20;;
9884;SDS011;4981;50.966;4.842;2022-10-22T13:22:23;3.92;;;1.25;;
9884;SDS011;4981;50.966;4.842;2022-10-22T13:24:53;4.30;;;0.90;;
9884;SDS011;4981;50.966;4.842;2022-10-22T13:27:22;7.18;;;1.27;;
9884;SDS011;4981;50.966;4.842;2022-10-22T13:29:49;4.13;;;1.50;;
9884;SDS011;4981;50.966;4.842;2022-10-22T13:32:21;6.45;;;1.30;;
9884;SDS011;4981;50.966;4.842;2022-10-22T13:34:57;4.60;;;1.35;;
9884;SDS011;4981;50.966;4.842;2022-10-22T13:37:26;5.27;;;1.30;;
9884;SDS011;4981;50.966;4.842;2022-10-22T13:39:54;5.80;;;1.45;;
9884;SDS011;4981;50.966;4.842;2022-10-22T13:42:23;3.85;;;1.17;;
9884;SDS011;4981;50.966;4.842;2022-10-22T13:44:50;5.28;;;1.42;;
9884;SDS011;4981;50.966;4.842;2022-10-22T13:47:24;6.38;;;1.73;;
9884;SDS011;4981;50.966;4.842;2022-10-22T13:49:53;5.57;;;1.13;;
9884;SDS011;4981;50.966;4.842;2022-10-22T13:52:27;4.93;;;1.25;;
9884;SDS011;4981;50.966;4.842;2022-10-22T13:54:57;5.70;;;1.37;;
9884;SDS011;4981;50.966;4.842;2022-10-22T13:57:26;5.55;;;1.42;;
9884;SDS011;4981;50.966;4.842;2022-10-22T13:59:53;5.97;;;1.25;;
9884;SDS011;4981;50.966;4.842;2022-10-22T14:02:20;6.07;;;1.40;;
9884;SDS011;4981;50.966;4.842;2022-10-22T14:04:48;5.40;;;1.50;;
9884;SDS011;4981;50.966;4.842;2022-10-22T14:07:17;6.03;;;1.30;;
9884;SDS011;4981;50.966;4.842;2022-10-22T14:09:44;4.78;;;1.13;;
9884;SDS011;4981;50.966;4.842;2022-10-22T14:12:12;3.28;;;1.10;;
9884;SDS011;4981;50.966;4.842;2022-10-22T14:14:42;6.30;;;1.15;;
9884;SDS011;4981;50.966;4.842;2022-10-22T14:17:10;4.25;;;1.15;;
9884;SDS011;4981;50.966;4.842;2022-10-22T14:19:41;5.95;;;1.50;;
9884;SDS011;4981;50.966;4.842;2022-10-22T14:22:13;2.92;;;0.80;;
9884;SDS011;4981;50.966;4.842;2022-10-22T14:24:41;6.38;;;1.75;;
9884;SDS011;4981;50.966;4.842;2022-10-22T14:27:09;6.00;;;1.60;;
9884;SDS011;4981;50.966;4.842;2022-10-22T14:29:37;5.83;;;1.70;;
9884;SDS011;4981;50.966;4.842;2022-10-22T14:32:08;5.72;;;1.17;;
9884;SDS011;4981;50.966;4.842;2022-10-22T14:34:37;5.63;;;1.58;;
9884;SDS011;4981;50.966;4.842;2022-10-22T14:37:08;10.05;;;1.83;;
9884;SDS011;4981;50.966;4.842;2022-10-22T14:39:41;6.30;;;1.50;;
9884;SDS011;4981;50.966;4.842;2022-10-22T14:42:10;4.68;;;1.27;;
9884;SDS011;4981;50.966;4.842;2022-10-22T14:44:38;6.72;;;1.35;;
9884;SDS011;4981;50.966;4.842;2022-10-22T14:47:06;7.47;;;1.65;;
9884;SDS011;4981;50.966;4.842;2022-10-22T14:49:33;5.32;;;1.60;;
9884;SDS011;4981;50.966;4.842;2022-10-22T14:52:00;8.73;;;1.60;;
9884;SDS011;4981;50.966;4.842;2022-10-22T14:54:27;3.67;;;0.93;;
9884;SDS011;4981;50.966;4.842;2022-10-22T14:56:55;4.65;;;1.42;;
9884;SDS011;4981;50.966;4.842;2022-10-22T14:59:22;4.30;;;1.30;;
9884;SDS011;4981;50.966;4.842;2022-10-22T15:01:49;5.47;;;1.40;;
9884;SDS011;4981;50.966;4.842;2022-10-22T15:04:17;6.10;;;1.08;;
9884;SDS011;4981;50.966;4.842;2022-10-22T15:06:45;6.13;;;1.57;;
9884;SDS011;4981;50.966;4.842;2022-10-22T15:09:12;4.60;;;1.20;;
9884;SDS011;4981;50.966;4.842;2022-10-22T15:11:39;5.28;;;1.30;;
9884;SDS011;4981;50.966;4.842;2022-10-22T15:14:06;6.05;;;1.50;;
9884;SDS011;4981;50.966;4.842;2022-10-22T15:16:34;7.00;;;1.23;;
9884;SDS011;4981;50.966;4.842;2022-10-22T15:19:01;4.57;;;1.38;;
9884;SDS011;4981;50.966;4.842;2022-10-22T15:21:29;7.03;;;1.30;;
9884;SDS011;4981;50.966;4.842;2022-10-22T15:23:57;7.63;;;1.10;;
9884;SDS011;4981;50.966;4.842;2022-10-22T15:26:24;9.80;;;1.33;;
9884;SDS011;4981;50.966;4.842;2022-10-22T15:28:53;6.40;;;1.60;;
9884;SDS011;4981;50.966;4.842;2022-10-22T15:34:08;6.95;;;1.55;;